createdAt,value
2019-03-21T00:00:49.813Z,22.00
2019-03-21T00:01:49.808Z,20.70
2019-03-21T00:02:49.824Z,21.80
2019-03-21T00:03:49.843Z,23.50
2019-03-21T00:04:49.861Z,20.20
2019-03-21T00:05:49.879Z,22.20
2019-03-21T00:06:49.896Z,20.70
2019-03-21T00:07:49.933Z,21.90
2019-03-21T00:08:50.015Z,22.40
2019-03-21T00:09:49.992Z,24.50
2019-03-21T00:10:49.992Z,22.60
2019-03-21T00:11:50.061Z,25.20
2019-03-21T00:12:50.064Z,21.60
2019-03-21T00:13:50.090Z,21.00
2019-03-21T00:14:50.085Z,20.50
2019-03-21T00:15:50.060Z,21.50
2019-03-21T00:16:50.074Z,20.70
2019-03-21T00:17:50.091Z,20.80
2019-03-21T00:18:50.112Z,22.70
2019-03-21T00:19:50.124Z,24.20
2019-03-21T00:20:50.143Z,27.30
2019-03-21T00:21:50.160Z,24.90
2019-03-21T00:22:50.177Z,19.40
2019-03-21T00:23:50.194Z,24.30
2019-03-21T00:24:50.214Z,22.20
2019-03-21T00:25:50.240Z,24.60
2019-03-21T00:26:50.249Z,25.20
2019-03-21T00:27:50.266Z,22.40
2019-03-21T00:28:50.283Z,23.20
2019-03-21T00:29:50.302Z,24.80
2019-03-21T00:30:50.319Z,26.90
2019-03-21T00:31:50.336Z,21.80
2019-03-21T00:32:50.353Z,23.40
2019-03-21T00:33:50.373Z,24.50
2019-03-21T00:34:50.391Z,20.70
2019-03-21T00:35:50.409Z,25.00
2019-03-21T00:36:50.429Z,21.60
2019-03-21T00:37:50.440Z,23.10
2019-03-21T00:38:50.460Z,24.10
2019-03-21T00:39:50.480Z,23.60
2019-03-21T00:40:50.498Z,24.40
2019-03-21T00:41:50.513Z,22.50
2019-03-21T00:42:50.529Z,22.70
2019-03-21T00:43:50.548Z,24.10
2019-03-21T00:44:50.568Z,24.70
2019-03-21T00:45:50.585Z,26.30
2019-03-21T00:46:50.600Z,24.10
2019-03-21T00:47:50.619Z,27.50
2019-03-21T00:48:50.637Z,25.30
2019-03-21T00:49:50.655Z,24.40
2019-03-21T00:50:50.672Z,24.80
2019-03-21T00:51:50.691Z,24.30
2019-03-21T00:52:50.707Z,24.10
2019-03-21T00:53:50.724Z,25.20
2019-03-21T00:54:50.742Z,27.50
2019-03-21T00:55:50.761Z,27.20
2019-03-21T00:56:50.778Z,24.80
2019-03-21T00:57:50.800Z,27.10
2019-03-21T00:58:50.810Z,28.40
2019-03-21T00:59:50.831Z,27.90
2019-03-21T01:00:50.848Z,24.80
2019-03-21T01:01:50.866Z,25.60
2019-03-21T01:02:50.882Z,24.70
2019-03-21T01:03:50.905Z,26.40
2019-03-21T01:04:50.920Z,27.30
2019-03-21T01:05:50.940Z,23.40
2019-03-21T01:06:50.954Z,27.60
2019-03-21T01:07:50.972Z,24.50
2019-03-21T01:08:50.990Z,31.00
2019-03-21T01:09:51.009Z,27.10
2019-03-21T01:10:51.024Z,28.90
2019-03-21T01:11:51.042Z,26.60
2019-03-21T01:12:51.062Z,26.20
2019-03-21T01:13:51.079Z,30.50
2019-03-21T01:14:51.102Z,27.40
2019-03-21T01:15:51.112Z,26.70
2019-03-21T01:16:51.130Z,28.40
2019-03-21T01:17:51.148Z,27.70
2019-03-21T01:18:51.165Z,30.80
2019-03-21T01:19:51.184Z,27.00
2019-03-21T01:20:51.202Z,30.50
2019-03-21T01:21:51.219Z,31.20
2019-03-21T01:22:51.235Z,28.40
2019-03-21T01:23:51.256Z,28.60
2019-03-21T01:24:51.272Z,29.30
2019-03-21T01:25:51.289Z,28.80
2019-03-21T01:26:51.306Z,32.70
2019-03-21T01:27:51.324Z,31.20
2019-03-21T01:28:51.344Z,29.30
2019-03-21T01:29:51.359Z,27.50
2019-03-21T01:30:51.376Z,30.20
2019-03-21T01:31:51.393Z,28.70
2019-03-21T01:32:51.411Z,26.50
2019-03-21T01:33:51.428Z,32.20
2019-03-21T01:34:51.447Z,29.70
2019-03-21T01:35:51.464Z,30.00
2019-03-21T01:36:51.481Z,29.90
2019-03-21T01:37:51.497Z,25.60
2019-03-21T01:38:51.570Z,27.10
2019-03-21T01:39:51.534Z,29.30
2019-03-21T01:40:51.557Z,30.70
2019-03-21T01:41:51.570Z,28.40
2019-03-21T01:42:51.587Z,28.80
2019-03-21T01:43:51.605Z,28.40
2019-03-21T01:44:51.625Z,29.50
2019-03-21T01:45:51.638Z,29.60
2019-03-21T01:46:51.655Z,26.60
2019-03-21T01:47:51.674Z,31.00
2019-03-21T01:48:51.690Z,26.20
2019-03-21T01:49:51.710Z,31.90
2019-03-21T01:50:51.729Z,32.50
2019-03-21T01:51:51.748Z,28.20
2019-03-21T01:52:51.762Z,33.40
2019-03-21T01:53:51.799Z,31.90
2019-03-21T01:54:51.871Z,29.80
2019-03-21T01:55:51.856Z,27.60
2019-03-21T01:56:51.873Z,30.20
2019-03-21T01:57:51.932Z,33.00
2019-03-21T01:58:51.929Z,30.40
2019-03-21T01:59:51.920Z,30.20
2019-03-21T02:00:51.925Z,31.50
2019-03-21T02:01:51.934Z,30.70
2019-03-21T02:02:51.936Z,29.40
2019-03-21T02:03:51.952Z,29.60
2019-03-21T02:04:51.972Z,35.80
2019-03-21T02:05:51.990Z,29.00
2019-03-21T02:06:52.007Z,28.80
2019-03-21T02:07:52.023Z,31.70
2019-03-21T02:08:52.041Z,34.60
2019-03-21T02:09:52.060Z,31.90
2019-03-21T02:10:52.074Z,33.00
2019-03-21T02:11:52.095Z,31.10
2019-03-21T02:12:52.110Z,31.50
2019-03-21T02:13:52.130Z,32.10
2019-03-21T02:14:52.568Z,32.00
2019-03-21T02:15:52.166Z,31.90
2019-03-21T02:16:52.179Z,31.60
2019-03-21T02:17:52.200Z,34.20
2019-03-21T02:18:52.216Z,33.20
2019-03-21T02:19:52.233Z,30.80
2019-03-21T02:20:52.252Z,31.00
2019-03-21T02:21:52.266Z,32.10
2019-03-21T02:22:52.285Z,30.30
2019-03-21T02:23:52.303Z,32.40
2019-03-21T02:24:52.320Z,30.00
2019-03-21T02:25:52.338Z,33.70
2019-03-21T02:26:52.357Z,33.50
2019-03-21T02:27:52.373Z,32.00
2019-03-21T02:28:52.391Z,30.30
2019-03-21T02:29:52.413Z,33.60
2019-03-21T02:30:52.430Z,31.00
2019-03-21T02:31:52.445Z,30.00
2019-03-21T02:32:52.462Z,33.30
2019-03-21T02:33:52.486Z,34.70
2019-03-21T02:34:52.494Z,33.30
2019-03-21T02:35:52.514Z,32.20
2019-03-21T02:36:52.533Z,33.00
2019-03-21T02:37:52.548Z,31.50
2019-03-21T02:38:52.565Z,33.40
2019-03-21T02:39:59.449Z,33.50
2019-03-21T02:40:52.603Z,30.70
2019-03-21T02:41:52.624Z,33.50
2019-03-21T02:42:52.635Z,31.10
2019-03-21T02:43:52.651Z,31.40
2019-03-21T02:45:07.306Z,34.20
2019-03-21T02:45:52.693Z,33.80
2019-03-21T02:46:52.710Z,34.80
2019-03-21T02:47:52.725Z,30.80
2019-03-21T02:48:52.743Z,34.60
2019-03-21T02:49:52.758Z,31.90
2019-03-21T02:50:52.776Z,34.70
2019-03-21T02:51:52.791Z,30.10
2019-03-21T02:52:52.809Z,33.50
2019-03-21T02:53:52.828Z,33.80
2019-03-21T02:54:52.846Z,35.40
2019-03-21T02:55:52.865Z,32.30
2019-03-21T02:56:52.879Z,32.90
2019-03-21T02:57:52.900Z,34.40
2019-03-21T02:58:52.915Z,35.20
2019-03-21T02:59:52.933Z,31.20
2019-03-21T03:00:52.950Z,32.10
2019-03-21T03:01:52.971Z,33.50
2019-03-21T03:02:52.987Z,31.80
2019-03-21T03:03:53.004Z,34.10
2019-03-21T03:04:53.020Z,32.40
2019-03-21T03:05:53.039Z,32.50
2019-03-21T03:06:53.056Z,30.50
2019-03-21T03:07:53.073Z,34.70
2019-03-21T03:08:53.094Z,34.40
2019-03-21T03:09:53.110Z,29.50
2019-03-21T03:10:53.124Z,30.50
2019-03-21T03:11:53.145Z,31.40
2019-03-21T03:12:53.163Z,40.80
2019-03-21T03:13:53.179Z,33.60
2019-03-21T03:14:53.196Z,35.50
2019-03-21T03:15:53.218Z,29.10
2019-03-21T03:16:53.230Z,32.70
2019-03-21T03:17:53.248Z,33.40
2019-03-21T03:18:53.265Z,30.00
2019-03-21T03:19:53.287Z,29.70
2019-03-21T03:20:53.306Z,31.30
2019-03-21T03:21:53.319Z,33.60
2019-03-21T03:22:53.339Z,29.90
2019-03-21T03:23:53.365Z,35.70
2019-03-21T03:24:53.371Z,33.90
2019-03-21T03:25:53.395Z,28.50
2019-03-21T03:26:53.406Z,36.30
2019-03-21T03:27:53.428Z,33.70
2019-03-21T03:28:53.442Z,29.40
2019-03-21T03:29:53.460Z,32.40
2019-03-21T03:30:53.498Z,33.80
2019-03-21T03:31:53.689Z,34.10
2019-03-21T03:32:53.516Z,31.10
2019-03-21T03:33:53.530Z,32.50
2019-03-21T03:34:53.547Z,30.20
2019-03-21T03:35:53.566Z,29.70
2019-03-21T03:36:53.580Z,30.80
2019-03-21T03:37:53.604Z,34.10
2019-03-21T03:38:53.619Z,31.10
2019-03-21T03:39:53.633Z,33.20
2019-03-21T03:40:53.685Z,30.60
2019-03-21T03:41:53.735Z,32.30
2019-03-21T03:42:53.772Z,35.10
2019-03-21T03:43:53.729Z,31.50
2019-03-21T03:44:53.790Z,31.00
2019-03-21T03:45:53.790Z,33.10
2019-03-21T03:46:53.794Z,30.10
2019-03-21T03:47:53.802Z,30.10
2019-03-21T03:48:53.803Z,29.60
2019-03-21T03:49:53.815Z,29.40
2019-03-21T03:50:53.916Z,32.10
2019-03-21T03:51:53.844Z,28.70
2019-03-21T03:52:53.862Z,28.60
2019-03-21T03:53:53.881Z,32.40
2019-03-21T03:54:53.896Z,29.50
2019-03-21T03:55:53.927Z,29.40
2019-03-21T03:56:53.931Z,29.80
2019-03-21T03:57:53.955Z,29.30
2019-03-21T03:58:53.972Z,32.40
2019-03-21T03:59:53.989Z,32.00
2019-03-21T04:00:54.002Z,29.10
2019-03-21T04:01:54.022Z,32.00
2019-03-21T04:02:54.037Z,28.70
2019-03-21T04:03:54.058Z,28.50
2019-03-21T04:04:54.074Z,29.60
2019-03-21T04:05:54.402Z,32.10
2019-03-21T04:06:54.106Z,30.00
2019-03-21T04:07:54.126Z,32.20
2019-03-21T04:08:54.145Z,28.90
2019-03-21T04:09:54.161Z,29.00
2019-03-21T04:10:54.182Z,30.90
2019-03-21T04:11:54.196Z,28.60
2019-03-21T04:12:54.219Z,30.80
2019-03-21T04:13:54.232Z,36.10
2019-03-21T04:14:54.248Z,30.30
2019-03-21T04:15:54.384Z,25.40
2019-03-21T04:16:54.284Z,30.20
2019-03-21T04:17:54.303Z,30.00
2019-03-21T04:18:54.322Z,28.60
2019-03-21T04:19:54.334Z,27.20
2019-03-21T04:20:54.387Z,29.50
2019-03-21T04:21:54.376Z,27.50
2019-03-21T04:22:54.390Z,27.70
2019-03-21T04:23:54.410Z,29.00
2019-03-21T04:24:54.428Z,31.10
2019-03-21T04:25:54.452Z,32.50
2019-03-21T04:26:54.469Z,28.90
2019-03-21T04:27:54.478Z,29.20
2019-03-21T04:28:54.506Z,29.40
2019-03-21T04:29:54.512Z,29.90
2019-03-21T04:30:54.536Z,30.70
2019-03-21T04:31:54.547Z,29.70
2019-03-21T04:32:54.565Z,27.20
2019-03-21T04:33:54.588Z,27.40
2019-03-21T04:34:54.599Z,30.70
2019-03-21T04:35:54.620Z,27.90
2019-03-21T04:36:54.634Z,27.50
2019-03-21T04:37:54.654Z,30.00
2019-03-21T04:38:54.670Z,29.10
2019-03-21T04:39:54.692Z,31.20
2019-03-21T04:40:54.705Z,34.00
2019-03-21T04:41:54.724Z,27.50
2019-03-21T04:42:54.740Z,29.80
2019-03-21T04:43:54.759Z,28.10
2019-03-21T04:44:54.775Z,26.40
2019-03-21T04:46:02.903Z,28.00
2019-03-21T04:46:54.811Z,26.70
2019-03-21T04:47:54.828Z,30.70
2019-03-21T04:48:54.846Z,30.50
2019-03-21T04:49:54.865Z,30.90
2019-03-21T04:50:54.881Z,29.00
2019-03-21T04:51:54.898Z,26.70
2019-03-21T04:52:54.916Z,30.50
2019-03-21T04:53:54.934Z,30.70
2019-03-21T04:54:54.952Z,27.80
2019-03-21T04:55:54.970Z,29.20
2019-03-21T04:56:54.986Z,28.70
2019-03-21T04:57:55.007Z,28.30
2019-03-21T04:58:55.019Z,26.90
2019-03-21T04:59:55.051Z,27.80
2019-03-21T05:00:55.055Z,27.90
2019-03-21T05:01:55.073Z,29.80
2019-03-21T05:02:55.091Z,29.20
2019-03-21T05:03:55.109Z,29.70
2019-03-21T05:04:55.127Z,27.70
2019-03-21T05:05:55.143Z,32.40
2019-03-21T05:06:55.160Z,28.50
2019-03-21T05:07:55.180Z,35.10
2019-03-21T05:08:55.196Z,28.70
2019-03-21T05:09:55.214Z,31.00
2019-03-21T05:10:55.231Z,30.80
2019-03-21T05:11:55.248Z,33.00
2019-03-21T05:12:55.263Z,26.80
2019-03-21T05:13:55.285Z,31.70
2019-03-21T05:14:55.301Z,30.20
2019-03-21T05:15:55.318Z,29.40
2019-03-21T05:16:55.340Z,30.80
2019-03-21T05:17:55.355Z,26.60
2019-03-21T05:18:55.371Z,30.20
2019-03-21T05:19:55.391Z,34.60
2019-03-21T05:20:55.406Z,30.50
2019-03-21T05:21:55.424Z,30.30
2019-03-21T05:22:55.440Z,31.40
2019-03-21T05:23:55.458Z,33.00
2019-03-21T05:24:55.476Z,33.20
2019-03-21T05:25:55.493Z,31.40
2019-03-21T05:26:55.520Z,29.70
2019-03-21T05:27:55.596Z,29.20
2019-03-21T05:28:55.604Z,30.20
2019-03-21T05:29:55.596Z,29.70
2019-03-21T05:30:55.613Z,29.60
2019-03-21T05:31:55.661Z,31.00
2019-03-21T05:32:55.704Z,30.50
2019-03-21T05:33:55.685Z,32.00
2019-03-21T05:34:55.666Z,33.20
2019-03-21T05:35:55.669Z,29.40
2019-03-21T05:36:55.687Z,32.80
2019-03-21T05:37:55.705Z,32.90
2019-03-21T05:38:55.723Z,31.20
2019-03-21T05:39:55.741Z,32.80
2019-03-21T05:40:55.760Z,34.40
2019-03-21T05:41:55.779Z,30.00
2019-03-21T05:42:55.794Z,30.70
2019-03-21T05:43:55.811Z,31.40
2019-03-21T05:44:55.829Z,33.60
2019-03-21T05:45:55.845Z,34.70
2019-03-21T05:46:55.865Z,30.40
2019-03-21T05:47:55.887Z,33.20
2019-03-21T05:48:55.899Z,30.50
2019-03-21T05:49:55.917Z,31.70
2019-03-21T05:50:55.934Z,31.50
2019-03-21T05:51:55.952Z,33.40
2019-03-21T05:52:55.970Z,32.80
2019-03-21T05:53:55.988Z,29.30
2019-03-21T05:54:56.005Z,28.90
2019-03-21T05:55:56.023Z,36.20
2019-03-21T05:56:56.041Z,29.80
2019-03-21T05:57:56.060Z,34.60
2019-03-21T05:58:56.074Z,29.00
2019-03-21T05:59:56.094Z,33.60
2019-03-21T06:00:56.115Z,34.40
2019-03-21T06:01:56.129Z,28.90
2019-03-21T06:02:56.153Z,31.60
2019-03-21T06:03:56.165Z,32.40
2019-03-21T06:04:56.183Z,33.70
2019-03-21T06:05:56.206Z,31.00
2019-03-21T06:06:56.217Z,33.80
2019-03-21T06:07:56.238Z,30.20
2019-03-21T06:08:56.256Z,35.60
2019-03-21T06:09:56.271Z,31.50
2019-03-21T06:10:56.290Z,36.20
2019-03-21T06:11:56.306Z,31.70
2019-03-21T06:12:56.324Z,33.60
2019-03-21T06:13:56.342Z,33.70
2019-03-21T06:14:56.361Z,38.50
2019-03-21T06:15:56.381Z,31.00
2019-03-21T06:16:56.396Z,34.10
2019-03-21T06:17:56.416Z,31.30
2019-03-21T06:18:56.430Z,30.10
2019-03-21T06:19:56.450Z,35.80
2019-03-21T06:20:56.467Z,31.60
2019-03-21T06:21:56.493Z,32.70
2019-03-21T06:22:56.502Z,34.50
2019-03-21T06:23:56.522Z,35.90
2019-03-21T06:24:56.538Z,34.80
2019-03-21T06:25:56.556Z,36.50
2019-03-21T06:26:56.574Z,37.40
2019-03-21T06:27:56.593Z,34.90
2019-03-21T06:28:56.609Z,34.90
2019-03-21T06:29:56.632Z,33.50
2019-03-21T06:30:56.645Z,32.20
2019-03-21T06:31:56.665Z,31.70
2019-03-21T06:32:56.684Z,36.40
2019-03-21T06:33:56.707Z,34.30
2019-03-21T06:34:56.717Z,33.70
2019-03-21T06:35:56.735Z,34.70
2019-03-21T06:36:56.753Z,34.70
2019-03-21T06:37:56.771Z,34.60
2019-03-21T06:38:56.790Z,36.30
2019-03-21T06:39:56.814Z,30.40
2019-03-21T06:40:56.825Z,29.50
2019-03-21T06:41:56.846Z,32.70
2019-03-21T06:42:56.861Z,32.40
2019-03-21T06:43:56.881Z,32.80
2019-03-21T06:44:56.902Z,31.60
2019-03-21T06:45:56.915Z,31.60
2019-03-21T06:46:56.934Z,30.60
2019-03-21T06:47:56.954Z,31.50
2019-03-21T06:48:56.971Z,32.10
2019-03-21T06:49:56.990Z,31.40
2019-03-21T06:50:57.006Z,33.60
2019-03-21T06:51:57.025Z,33.10
2019-03-21T06:52:57.043Z,34.20
2019-03-21T06:53:57.065Z,33.10
2019-03-21T06:54:59.567Z,35.90
2019-03-21T06:55:57.097Z,35.10
2019-03-21T06:56:57.115Z,34.50
2019-03-21T06:57:57.135Z,35.10
2019-03-21T06:58:57.153Z,32.70
2019-03-21T06:59:57.172Z,28.20
2019-03-21T07:00:57.192Z,29.10
2019-03-21T07:01:57.206Z,31.80
2019-03-21T07:02:57.225Z,31.20
2019-03-21T07:04:06.591Z,29.60
2019-03-21T07:04:57.261Z,30.00
2019-03-21T07:05:57.280Z,29.40
2019-03-21T07:07:07.541Z,29.70
2019-03-21T07:07:57.316Z,28.60
2019-03-21T07:08:57.340Z,28.90
2019-03-21T07:09:57.353Z,30.60
2019-03-21T07:10:58.350Z,28.50
2019-03-21T07:11:57.413Z,27.50
2019-03-21T07:12:57.468Z,30.00
2019-03-21T07:13:57.474Z,29.00
2019-03-21T07:14:57.469Z,33.10
2019-03-21T07:15:57.535Z,27.00
2019-03-21T07:17:00.690Z,33.10
2019-03-21T07:17:57.535Z,30.50
2019-03-21T07:18:57.547Z,27.20
2019-03-21T07:19:57.540Z,29.10
2019-03-21T07:20:57.556Z,32.80
2019-03-21T07:21:57.576Z,43.80
2019-03-21T07:22:57.592Z,37.10
2019-03-21T07:23:57.613Z,45.00
2019-03-21T07:24:57.629Z,54.20
2019-03-21T07:25:57.650Z,32.30
2019-03-21T07:26:57.665Z,40.50
2019-03-21T07:27:57.684Z,37.00
2019-03-21T07:28:57.703Z,28.40
2019-03-21T07:29:57.721Z,33.30
2019-03-21T07:30:57.740Z,42.10
2019-03-21T07:31:57.761Z,48.30
2019-03-21T07:32:57.776Z,37.10
2019-03-21T07:33:57.798Z,29.90
2019-03-21T07:34:57.815Z,32.60
2019-03-21T07:35:57.835Z,34.10
2019-03-21T07:36:57.853Z,29.30
2019-03-21T07:37:57.874Z,29.10
2019-03-21T07:38:57.886Z,32.00
2019-03-21T07:39:57.906Z,33.70
2019-03-21T07:40:57.929Z,28.80
2019-03-21T07:41:57.951Z,34.60
2019-03-21T07:42:57.960Z,33.80
2019-03-21T07:43:57.985Z,37.10
2019-03-21T07:44:58.001Z,34.90
2019-03-21T07:45:58.020Z,34.30
2019-03-21T07:46:58.035Z,35.30
2019-03-21T07:47:58.056Z,40.40
2019-03-21T07:48:58.076Z,38.30
2019-03-21T07:49:58.105Z,34.30
2019-03-21T07:50:58.115Z,36.20
2019-03-21T07:51:58.129Z,35.30
2019-03-21T07:52:58.151Z,36.10
2019-03-21T07:53:58.169Z,35.70
2019-03-21T07:54:58.186Z,42.00
2019-03-21T07:55:58.204Z,40.80
2019-03-21T07:56:58.224Z,40.70
2019-03-21T07:57:59.449Z,35.80
2019-03-21T07:58:58.261Z,37.30
2019-03-21T07:59:58.278Z,38.20
2019-03-21T08:00:58.298Z,34.80
2019-03-21T08:01:58.316Z,42.40
2019-03-21T08:02:58.337Z,36.20
2019-03-21T08:03:58.354Z,41.20
2019-03-21T08:04:58.370Z,39.20
2019-03-21T08:05:58.391Z,40.40
2019-03-21T08:06:58.409Z,37.00
2019-03-21T08:07:58.429Z,37.70
2019-03-21T08:08:58.449Z,37.00
2019-03-21T08:09:58.466Z,37.00
2019-03-21T08:10:58.484Z,38.00
2019-03-21T08:11:58.503Z,37.30
2019-03-21T08:12:58.525Z,40.00
2019-03-21T08:13:58.543Z,42.50
2019-03-21T08:14:58.558Z,37.20
2019-03-21T08:15:58.577Z,36.40
2019-03-21T08:16:58.599Z,33.50
2019-03-21T08:17:58.620Z,37.60
2019-03-21T08:18:58.639Z,33.70
2019-03-21T08:19:58.654Z,38.50
2019-03-21T08:20:59.995Z,41.10
2019-03-21T08:21:58.691Z,32.30
2019-03-21T08:22:58.708Z,35.20
2019-03-21T08:23:58.730Z,35.40
2019-03-21T08:24:58.750Z,35.80
2019-03-21T08:25:58.767Z,32.70
2019-03-21T08:26:58.784Z,41.40
2019-03-21T08:27:58.806Z,35.70
2019-03-21T08:28:58.823Z,35.70
2019-03-21T08:29:58.840Z,34.90
2019-03-21T08:30:58.859Z,36.90
2019-03-21T08:31:58.882Z,38.00
2019-03-21T08:32:58.898Z,35.20
2019-03-21T08:33:58.917Z,41.00
2019-03-21T08:34:58.936Z,37.30
2019-03-21T08:35:58.955Z,39.40
2019-03-21T08:36:58.975Z,36.50
2019-03-21T08:37:58.995Z,36.30
2019-03-21T08:38:59.014Z,36.60
2019-03-21T08:39:59.030Z,37.50
2019-03-21T08:40:59.053Z,38.20
2019-03-21T08:41:59.071Z,34.90
2019-03-21T08:42:59.088Z,36.20
2019-03-21T08:43:59.109Z,35.60
2019-03-21T08:44:59.127Z,33.50
2019-03-21T08:45:59.144Z,35.90
2019-03-21T08:46:59.165Z,33.90
2019-03-21T08:47:59.192Z,41.70
2019-03-21T08:48:59.205Z,35.70
2019-03-21T08:49:59.224Z,36.30
2019-03-21T08:51:07.783Z,34.70
2019-03-21T08:51:59.271Z,39.10
2019-03-21T08:52:59.348Z,33.90
2019-03-21T08:53:59.339Z,36.10
2019-03-21T08:54:59.351Z,36.80
2019-03-21T08:55:59.411Z,32.80
2019-03-21T08:56:59.410Z,35.20
2019-03-21T08:57:59.412Z,32.40
2019-03-21T08:58:59.403Z,32.60
2019-03-21T08:59:59.432Z,36.10
2019-03-21T09:00:59.435Z,38.10
2019-03-21T09:01:59.455Z,36.90
2019-03-21T09:02:59.475Z,30.90
2019-03-21T09:03:59.490Z,31.10
2019-03-21T09:04:59.907Z,32.10
2019-03-21T09:05:59.530Z,29.30
2019-03-21T09:06:59.550Z,34.10
2019-03-21T09:07:59.573Z,37.30
2019-03-21T09:08:59.590Z,32.50
2019-03-21T09:09:59.608Z,32.00
2019-03-21T09:10:59.628Z,34.80
2019-03-21T09:11:59.648Z,34.50
2019-03-21T09:12:59.666Z,31.50
2019-03-21T09:13:59.686Z,31.50
2019-03-21T09:14:59.706Z,28.20
2019-03-21T09:15:59.724Z,31.10
2019-03-21T09:16:59.749Z,27.20
2019-03-21T09:17:59.766Z,29.50
2019-03-21T09:18:59.783Z,31.50
2019-03-21T09:19:59.805Z,28.90
2019-03-21T09:20:59.823Z,36.30
2019-03-21T09:21:59.843Z,30.60
2019-03-21T09:22:59.861Z,34.50
2019-03-21T09:23:59.885Z,33.40
2019-03-21T09:24:59.904Z,32.50
2019-03-21T09:25:59.923Z,32.30
2019-03-21T09:26:59.943Z,32.70
2019-03-21T09:28:02.865Z,27.90
2019-03-21T09:28:59.981Z,27.30
2019-03-21T09:30:00.004Z,26.20
2019-03-21T09:31:00.021Z,22.90
2019-03-21T09:32:00.042Z,23.60
2019-03-21T09:33:00.061Z,29.00
2019-03-21T09:34:00.083Z,28.50
2019-03-21T09:35:00.170Z,28.10
2019-03-21T09:36:00.122Z,23.50
2019-03-21T09:37:00.142Z,26.80
2019-03-21T09:38:00.160Z,29.70
2019-03-21T09:39:00.180Z,27.20
2019-03-21T09:40:00.334Z,27.70
2019-03-21T09:41:00.219Z,26.10
2019-03-21T09:42:00.240Z,24.20
2019-03-21T09:43:02.854Z,26.40
2019-03-21T09:44:00.334Z,28.30
2019-03-21T09:45:00.449Z,29.30
2019-03-21T09:46:00.322Z,24.40
2019-03-21T09:47:00.340Z,29.20
2019-03-21T09:48:00.360Z,31.70
2019-03-21T09:49:00.380Z,48.70
2019-03-21T09:50:00.436Z,25.40
2019-03-21T09:51:00.418Z,28.50
2019-03-21T09:52:00.491Z,25.20
2019-03-21T09:53:00.459Z,27.30
2019-03-21T09:54:09.335Z,25.40
2019-03-21T09:55:00.499Z,24.90
2019-03-21T09:56:01.226Z,24.20
2019-03-21T09:57:00.556Z,27.20
2019-03-21T09:58:00.560Z,30.40
2019-03-21T09:59:00.578Z,26.50
2019-03-21T10:00:00.603Z,24.10
2019-03-21T10:01:00.621Z,25.30
2019-03-21T10:02:00.639Z,30.70
2019-03-21T10:03:00.659Z,27.90
2019-03-21T10:04:00.680Z,27.00
2019-03-21T10:05:00.700Z,27.40
2019-03-21T10:06:00.770Z,29.90
2019-03-21T10:07:00.738Z,25.20
2019-03-21T10:08:00.759Z,25.20
2019-03-21T10:09:00.778Z,24.90
2019-03-21T10:10:00.799Z,24.00
2019-03-21T10:11:00.817Z,29.60
2019-03-21T10:12:00.837Z,23.70
2019-03-21T10:13:00.858Z,25.70
2019-03-21T10:14:00.880Z,26.30
2019-03-21T10:15:00.898Z,25.50
2019-03-21T10:16:00.916Z,24.80
2019-03-21T10:17:00.939Z,25.70
2019-03-21T10:18:00.961Z,27.10
2019-03-21T10:19:00.979Z,26.50
2019-03-21T10:20:01.004Z,23.00
2019-03-21T10:21:01.019Z,20.90
2019-03-21T10:22:01.039Z,22.80
2019-03-21T10:23:01.055Z,22.10
2019-03-21T10:24:01.077Z,22.00
2019-03-21T10:25:01.097Z,26.90
2019-03-21T10:26:01.118Z,25.50
2019-03-21T10:27:01.144Z,24.20
2019-03-21T10:28:01.197Z,24.20
2019-03-21T10:29:01.221Z,21.90
2019-03-21T10:30:01.223Z,23.70
2019-03-21T10:31:01.313Z,27.00
2019-03-21T10:32:01.298Z,24.20
2019-03-21T10:33:01.291Z,21.50
2019-03-21T10:34:01.309Z,24.70
2019-03-21T10:35:01.304Z,19.10
2019-03-21T10:36:01.319Z,20.80
2019-03-21T10:37:01.372Z,29.70
2019-03-21T10:38:01.361Z,22.60
2019-03-21T10:39:01.379Z,23.20
2019-03-21T10:40:01.402Z,29.90
2019-03-21T10:41:01.420Z,28.80
2019-03-21T10:42:01.439Z,23.20
2019-03-21T10:43:01.461Z,27.70
2019-03-21T10:44:01.483Z,54.60
2019-03-21T10:45:01.500Z,22.90
2019-03-21T10:46:01.521Z,23.10
2019-03-21T10:47:01.541Z,20.20
2019-03-21T10:48:01.561Z,20.30
2019-03-21T10:49:01.584Z,24.00
2019-03-21T10:50:01.605Z,19.90
2019-03-21T10:51:01.626Z,24.20
2019-03-21T10:52:01.642Z,19.90
2019-03-21T10:53:01.667Z,21.10
2019-03-21T10:54:01.685Z,19.40
2019-03-21T10:55:01.704Z,19.80
2019-03-21T10:56:01.726Z,20.50
2019-03-21T10:57:01.747Z,20.20
2019-03-21T10:58:01.766Z,19.40
2019-03-21T10:59:01.786Z,15.30
2019-03-21T11:00:02.265Z,20.50
2019-03-21T11:01:01.827Z,18.70
2019-03-21T11:02:07.264Z,21.10
2019-03-21T11:03:01.866Z,20.20
2019-03-21T11:04:01.890Z,17.10
2019-03-21T11:05:01.910Z,18.00
2019-03-21T11:06:01.931Z,17.70
2019-03-21T11:07:01.961Z,17.00
2019-03-21T11:08:01.970Z,16.70
2019-03-21T11:09:01.990Z,17.30
2019-03-21T11:10:02.021Z,17.90
2019-03-21T11:11:02.033Z,16.20
2019-03-21T11:12:02.054Z,16.40
2019-03-21T11:13:02.074Z,15.70
2019-03-21T11:14:02.094Z,18.30
2019-03-21T11:15:02.114Z,16.90
2019-03-21T11:16:02.136Z,19.70
2019-03-21T11:17:02.156Z,18.90
2019-03-21T11:18:02.176Z,17.60
2019-03-21T11:19:02.197Z,19.40
2019-03-21T11:20:02.216Z,18.50
2019-03-21T11:21:02.236Z,17.90
2019-03-21T11:22:06.293Z,19.50
2019-03-21T11:23:02.277Z,19.10
2019-03-21T11:24:02.303Z,20.50
2019-03-21T11:25:02.325Z,21.40
2019-03-21T11:26:02.343Z,21.30
2019-03-21T11:27:02.359Z,20.40
2019-03-21T11:28:02.380Z,19.30
2019-03-21T11:29:02.401Z,20.80
2019-03-21T11:30:02.421Z,18.50
2019-03-21T11:31:02.442Z,22.30
2019-03-21T11:32:02.460Z,22.50
2019-03-21T11:33:02.481Z,18.10
2019-03-21T11:34:02.502Z,19.70
2019-03-21T11:35:02.523Z,19.60
2019-03-21T11:36:02.541Z,21.60
2019-03-21T11:37:02.569Z,19.50
2019-03-21T11:38:02.584Z,20.00
2019-03-21T11:39:02.602Z,20.70
2019-03-21T11:40:02.625Z,20.90
2019-03-21T11:41:02.660Z,19.70
2019-03-21T11:42:02.678Z,26.10
2019-03-21T11:43:02.705Z,20.90
2019-03-21T11:44:02.706Z,22.80
2019-03-21T11:45:02.730Z,20.20
2019-03-21T11:46:02.756Z,18.10
2019-03-21T11:47:02.772Z,19.90
2019-03-21T11:48:02.787Z,20.30
2019-03-21T11:49:02.821Z,17.90
2019-03-21T11:50:02.842Z,21.90
2019-03-21T11:51:02.856Z,23.50
2019-03-21T11:52:02.871Z,24.10
2019-03-21T11:53:02.892Z,20.10
2019-03-21T11:54:02.912Z,22.00
2019-03-21T11:55:02.933Z,21.90
2019-03-21T11:56:02.965Z,21.10
2019-03-21T11:57:02.973Z,21.90
2019-03-21T11:58:02.996Z,19.90
2019-03-21T11:59:03.014Z,20.90
2019-03-21T12:00:03.123Z,22.30
2019-03-21T12:01:03.120Z,19.90
2019-03-21T12:02:03.120Z,19.00
2019-03-21T12:03:04.226Z,20.30
2019-03-21T12:04:03.179Z,23.60
2019-03-21T12:05:03.199Z,21.00
2019-03-21T12:06:03.175Z,21.80
2019-03-21T12:07:03.188Z,19.60
2019-03-21T12:08:03.199Z,23.30
2019-03-21T12:09:03.219Z,24.30
2019-03-21T12:10:03.241Z,22.00
2019-03-21T12:11:03.264Z,21.60
2019-03-21T12:12:03.305Z,23.30
2019-03-21T12:13:03.304Z,23.80
2019-03-21T12:14:03.323Z,21.90
2019-03-21T12:15:03.344Z,24.20
2019-03-21T12:16:03.366Z,25.00
2019-03-21T12:17:03.388Z,22.20
2019-03-21T12:18:03.406Z,24.20
2019-03-21T12:19:03.427Z,26.10
2019-03-21T12:20:03.447Z,24.10
2019-03-21T12:21:03.469Z,22.70
2019-03-21T12:22:03.492Z,21.80
2019-03-21T12:23:03.510Z,23.70
2019-03-21T12:24:03.529Z,25.10
2019-03-21T12:25:03.551Z,24.90
2019-03-21T12:26:03.574Z,24.10
2019-03-21T12:27:03.591Z,25.70
2019-03-21T12:28:03.613Z,27.10
2019-03-21T12:29:03.637Z,26.00
2019-03-21T12:30:03.654Z,24.50
2019-03-21T12:31:03.675Z,28.30
2019-03-21T12:32:03.697Z,26.10
2019-03-21T12:33:03.717Z,29.10
2019-03-21T12:34:03.738Z,29.60
2019-03-21T12:35:03.755Z,26.80
2019-03-21T12:36:03.777Z,26.80
2019-03-21T12:37:03.799Z,29.90
2019-03-21T12:38:03.819Z,26.20
2019-03-21T12:39:03.841Z,22.60
2019-03-21T12:40:03.859Z,27.20
2019-03-21T12:41:03.881Z,27.70
2019-03-21T12:42:03.907Z,25.40
2019-03-21T12:43:03.923Z,25.40
2019-03-21T12:44:03.941Z,25.40
2019-03-21T12:45:03.962Z,26.40
2019-03-21T12:46:03.986Z,29.30
2019-03-21T12:47:04.004Z,26.60
2019-03-21T12:48:04.025Z,29.50
2019-03-21T12:49:04.046Z,29.10
2019-03-21T12:50:04.066Z,27.00
2019-03-21T12:51:04.087Z,28.30
2019-03-21T12:52:04.111Z,25.30
2019-03-21T12:53:04.126Z,28.10